sensor_id;sensor_type;location;lat;lon;timestamp;pressure;altitude;pressure_sealevel;temperature;humidity
9277;BME280;4676;42.678;23.244;2023-04-26T00:02:09;93164.97;;;8.91;100.00
9277;BME280;4676;42.678;23.244;2023-04-26T00:04:36;93163.25;;;8.91;100.00
9277;BME280;4676;42.678;23.244;2023-04-26T00:07:03;93159.91;;;8.91;100.00
9277;BME280;4676;42.678;23.244;2023-04-26T00:09:31;93163.72;;;8.82;100.00
9277;BME280;4676;42.678;23.244;2023-04-26T00:11:58;93158.94;;;8.76;100.00
9277;BME280;4676;42.678;23.244;2023-04-26T00:14:24;93149.66;;;8.77;100.00
9277;BME280;4676;42.678;23.244;2023-04-26T00:16:51;93149.06;;;8.72;100.00
9277;BME280;4676;42.678;23.244;2023-04-26T00:19:18;93129.53;;;8.58;100.00
9277;BME280;4676;42.678;23.244;2023-04-26T00:21:45;93145.06;;;8.68;100.00
9277;BME280;4676;42.678;23.244;2023-04-26T00:24:12;93137.38;;;8.69;100.00
9277;BME280;4676;42.678;23.244;2023-04-26T00:26:40;93130.13;;;8.63;100.00
9277;BME280;4676;42.678;23.244;2023-04-26T00:29:07;93132.47;;;8.66;100.00
9277;BME280;4676;42.678;23.244;2023-04-26T00:31:33;93124.91;;;8.66;100.00
9277;BME280;4676;42.678;23.244;2023-04-26T00:34:00;93124.09;;;8.66;100.00
9277;BME280;4676;42.678;23.244;2023-04-26T00:36:27;93129.28;;;8.63;100.00
9277;BME280;4676;42.678;23.244;2023-04-26T00:38:54;93120.69;;;8.49;100.00
9277;BME280;4676;42.678;23.244;2023-04-26T00:41:20;93136.69;;;8.48;100.00
9277;BME280;4676;42.678;23.244;2023-04-26T00:43:49;93094.75;;;8.29;100.00
9277;BME280;4676;42.678;23.244;2023-04-26T00:46:16;93126.09;;;8.42;100.00
9277;BME280;4676;42.678;23.244;2023-04-26T00:48:43;93109.53;;;8.36;100.00
9277;BME280;4676;42.678;23.244;2023-04-26T00:51:10;93131.13;;;8.42;100.00
9277;BME280;4676;42.678;23.244;2023-04-26T00:53:38;93121.66;;;8.47;100.00
9277;BME280;4676;42.678;23.244;2023-04-26T00:56:05;93127.56;;;8.29;100.00
9277;BME280;4676;42.678;23.244;2023-04-26T00:58:33;93121.06;;;8.23;100.00
9277;BME280;4676;42.678;23.244;2023-04-26T01:01:01;93123.19;;;8.14;100.00
9277;BME280;4676;42.678;23.244;2023-04-26T01:03:28;93126.97;;;8.05;100.00
9277;BME280;4676;42.678;23.244;2023-04-26T01:05:55;93130.78;;;7.95;100.00
9277;BME280;4676;42.678;23.244;2023-04-26T01:21:54;93124.59;;;8.02;100.00
9277;BME280;4676;42.678;23.244;2023-04-26T01:24:22;93100.53;;;7.95;100.00
9277;BME280;4676;42.678;23.244;2023-04-26T01:26:49;93116.94;;;8.03;100.00
9277;BME280;4676;42.678;23.244;2023-04-26T01:29:17;93125.25;;;8.06;100.00
9277;BME280;4676;42.678;23.244;2023-04-26T01:31:45;93128.38;;;8.11;100.00
9277;BME280;4676;42.678;23.244;2023-04-26T01:34:11;93139.22;;;8.13;100.00
9277;BME280;4676;42.678;23.244;2023-04-26T01:36:38;93109.81;;;8.12;100.00
9277;BME280;4676;42.678;23.244;2023-04-26T01:39:05;93131.06;;;8.25;100.00
9277;BME280;4676;42.678;23.244;2023-04-26T01:41:34;93133.94;;;8.17;100.00
9277;BME280;4676;42.678;23.244;2023-04-26T01:44:01;93139.66;;;8.21;100.00
9277;BME280;4676;42.678;23.244;2023-04-26T01:46:28;93141.88;;;8.28;100.00
9277;BME280;4676;42.678;23.244;2023-04-26T01:48:55;93141.47;;;8.19;100.00
9277;BME280;4676;42.678;23.244;2023-04-26T01:53:50;93128.41;;;8.28;100.00
9277;BME280;4676;42.678;23.244;2023-04-26T01:56:17;93120.09;;;8.26;100.00
9277;BME280;4676;42.678;23.244;2023-04-26T01:58:45;93126.03;;;8.25;100.00
9277;BME280;4676;42.678;23.244;2023-04-26T02:01:12;93120.16;;;8.24;100.00
9277;BME280;4676;42.678;23.244;2023-04-26T02:03:39;93095.22;;;8.18;100.00
9277;BME280;4676;42.678;23.244;2023-04-26T02:06:06;93103.81;;;8.33;100.00
9277;BME280;4676;42.678;23.244;2023-04-26T02:08:32;93105.00;;;8.24;100.00
9277;BME280;4676;42.678;23.244;2023-04-26T02:10:59;93116.03;;;8.23;100.00
9277;BME280;4676;42.678;23.244;2023-04-26T02:13:26;93112.53;;;8.26;100.00
9277;BME280;4676;42.678;23.244;2023-04-26T02:15:54;93108.03;;;8.32;100.00
9277;BME280;4676;42.678;23.244;2023-04-26T02:18:21;93102.34;;;8.27;100.00
9277;BME280;4676;42.678;23.244;2023-04-26T02:20:57;93101.44;;;8.30;100.00
9277;BME280;4676;42.678;23.244;2023-04-26T02:23:28;93103.25;;;8.26;100.00
9277;BME280;4676;42.678;23.244;2023-04-26T02:25:55;93100.53;;;8.31;100.00
9277;BME280;4676;42.678;23.244;2023-04-26T02:28:22;93100.25;;;8.37;100.00
9277;BME280;4676;42.678;23.244;2023-04-26T02:30:48;93113.31;;;8.45;100.00
9277;BME280;4676;42.678;23.244;2023-04-26T02:33:17;93110.72;;;8.46;100.00
9277;BME280;4676;42.678;23.244;2023-04-26T02:35:43;93117.47;;;8.46;100.00
9277;BME280;4676;42.678;23.244;2023-04-26T02:38:10;93116.09;;;8.58;100.00
9277;BME280;4676;42.678;23.244;2023-04-26T02:40:37;93116.66;;;8.63;100.00
9277;BME280;4676;42.678;23.244;2023-04-26T02:43:04;93111.59;;;8.63;100.00
9277;BME280;4676;42.678;23.244;2023-04-26T02:45:31;93109.84;;;8.65;100.00
9277;BME280;4676;42.678;23.244;2023-04-26T02:47:58;93096.97;;;8.69;100.00
9277;BME280;4676;42.678;23.244;2023-04-26T02:50:26;93086.00;;;8.70;100.00
9277;BME280;4676;42.678;23.244;2023-04-26T02:52:53;93089.03;;;8.77;100.00
9277;BME280;4676;42.678;23.244;2023-04-26T02:55:19;93086.75;;;8.72;100.00
9277;BME280;4676;42.678;23.244;2023-04-26T02:57:46;93066.66;;;8.69;100.00
9277;BME280;4676;42.678;23.244;2023-04-26T03:00:13;93092.91;;;8.67;100.00
9277;BME280;4676;42.678;23.244;2023-04-26T03:02:40;93099.28;;;8.39;100.00
9277;BME280;4676;42.678;23.244;2023-04-26T03:05:07;93087.03;;;8.32;100.00
9277;BME280;4676;42.678;23.244;2023-04-26T03:07:36;93084.56;;;8.30;100.00
9277;BME280;4676;42.678;23.244;2023-04-26T03:10:03;93087.75;;;8.34;100.00
9277;BME280;4676;42.678;23.244;2023-04-26T03:12:30;93098.25;;;8.25;100.00
9277;BME280;4676;42.678;23.244;2023-04-26T03:14:57;93095.16;;;8.20;100.00
9277;BME280;4676;42.678;23.244;2023-04-26T03:17:24;93092.91;;;8.14;100.00
9277;BME280;4676;42.678;23.244;2023-04-26T03:19:50;93093.97;;;8.27;100.00
9277;BME280;4676;42.678;23.244;2023-04-26T03:22:17;93093.88;;;8.30;100.00
9277;BME280;4676;42.678;23.244;2023-04-26T03:24:45;93094.41;;;8.18;100.00
9277;BME280;4676;42.678;23.244;2023-04-26T03:27:12;93095.28;;;8.17;100.00
9277;BME280;4676;42.678;23.244;2023-04-26T03:29:39;93097.94;;;8.14;100.00
9277;BME280;4676;42.678;23.244;2023-04-26T03:32:05;93097.06;;;8.15;100.00
9277;BME280;4676;42.678;23.244;2023-04-26T03:34:32;93092.06;;;8.13;100.00
9277;BME280;4676;42.678;23.244;2023-04-26T03:36:59;93095.22;;;8.18;100.00
9277;BME280;4676;42.678;23.244;2023-04-26T03:39:25;93077.44;;;8.02;100.00
9277;BME280;4676;42.678;23.244;2023-04-26T03:41:53;93106.19;;;8.17;100.00
9277;BME280;4676;42.678;23.244;2023-04-26T03:44:20;93112.25;;;8.13;100.00
9277;BME280;4676;42.678;23.244;2023-04-26T03:46:47;93107.91;;;8.17;100.00
9277;BME280;4676;42.678;23.244;2023-04-26T03:49:13;93112.59;;;8.24;100.00
9277;BME280;4676;42.678;23.244;2023-04-26T03:51:40;93117.72;;;8.23;100.00
9277;BME280;4676;42.678;23.244;2023-04-26T03:54:07;93120.72;;;8.31;100.00
9277;BME280;4676;42.678;23.244;2023-04-26T03:56:33;93124.59;;;8.38;100.00
9277;BME280;4676;42.678;23.244;2023-04-26T03:59:02;93122.34;;;8.32;100.00
9277;BME280;4676;42.678;23.244;2023-04-26T04:01:29;93125.16;;;8.26;100.00
9277;BME280;4676;42.678;23.244;2023-04-26T04:03:56;93126.13;;;8.23;100.00
9277;BME280;4676;42.678;23.244;2023-04-26T04:06:22;93127.88;;;8.40;100.00
9277;BME280;4676;42.678;23.244;2023-04-26T04:08:49;93122.31;;;8.50;100.00
9277;BME280;4676;42.678;23.244;2023-04-26T04:11:16;93131.22;;;8.58;100.00
9277;BME280;4676;42.678;23.244;2023-04-26T04:13:42;93124.47;;;8.58;100.00
9277;BME280;4676;42.678;23.244;2023-04-26T04:16:10;93129.22;;;8.64;100.00
9277;BME280;4676;42.678;23.244;2023-04-26T04:18:37;93130.88;;;8.65;100.00
9277;BME280;4676;42.678;23.244;2023-04-26T04:21:04;93133.75;;;8.58;100.00
9277;BME280;4676;42.678;23.244;2023-04-26T04:23:31;93135.16;;;8.46;100.00
9277;BME280;4676;42.678;23.244;2023-04-26T04:25:57;93134.63;;;8.57;100.00
9277;BME280;4676;42.678;23.244;2023-04-26T04:28:24;93142.16;;;8.58;100.00
9277;BME280;4676;42.678;23.244;2023-04-26T04:30:51;93135.84;;;8.67;100.00
9277;BME280;4676;42.678;23.244;2023-04-26T04:33:19;93141.19;;;8.61;100.00
9277;BME280;4676;42.678;23.244;2023-04-26T04:35:46;93135.97;;;8.64;100.00
9277;BME280;4676;42.678;23.244;2023-04-26T04:38:13;93145.34;;;8.79;100.00
9277;BME280;4676;42.678;23.244;2023-04-26T04:40:39;93145.72;;;8.88;100.00
9277;BME280;4676;42.678;23.244;2023-04-26T04:43:06;93141.84;;;8.98;100.00
9277;BME280;4676;42.678;23.244;2023-04-26T04:45:33;93148.69;;;8.96;100.00
9277;BME280;4676;42.678;23.244;2023-04-26T04:48:01;93144.97;;;9.03;100.00
9277;BME280;4676;42.678;23.244;2023-04-26T04:50:30;93138.72;;;9.11;100.00
9277;BME280;4676;42.678;23.244;2023-04-26T04:52:57;93150.16;;;9.18;100.00
9277;BME280;4676;42.678;23.244;2023-04-26T04:55:24;93152.38;;;9.24;100.00
9277;BME280;4676;42.678;23.244;2023-04-26T04:57:50;93147.09;;;9.28;100.00
9277;BME280;4676;42.678;23.244;2023-04-26T05:00:18;93132.59;;;9.32;100.00
9277;BME280;4676;42.678;23.244;2023-04-26T05:02:45;93140.47;;;9.26;100.00
9277;BME280;4676;42.678;23.244;2023-04-26T05:05:12;93137.50;;;9.35;100.00
9277;BME280;4676;42.678;23.244;2023-04-26T05:07:40;93139.72;;;9.41;100.00
9277;BME280;4676;42.678;23.244;2023-04-26T05:10:08;93146.09;;;9.48;100.00
9277;BME280;4676;42.678;23.244;2023-04-26T05:12:35;93138.13;;;9.56;100.00
9277;BME280;4676;42.678;23.244;2023-04-26T05:15:02;93140.81;;;9.68;100.00
9277;BME280;4676;42.678;23.244;2023-04-26T05:17:31;93143.59;;;9.79;100.00
9277;BME280;4676;42.678;23.244;2023-04-26T05:19:58;93138.31;;;9.84;100.00
9277;BME280;4676;42.678;23.244;2023-04-26T05:22:28;93144.53;;;9.94;100.00
9277;BME280;4676;42.678;23.244;2023-04-26T05:24:56;93142.66;;;9.97;100.00
9277;BME280;4676;42.678;23.244;2023-04-26T05:27:23;93140.28;;;10.10;100.00
9277;BME280;4676;42.678;23.244;2023-04-26T05:29:51;93141.69;;;10.16;100.00
9277;BME280;4676;42.678;23.244;2023-04-26T05:32:18;93142.59;;;10.30;100.00
9277;BME280;4676;42.678;23.244;2023-04-26T05:34:44;93146.75;;;10.47;100.00
9277;BME280;4676;42.678;23.244;2023-04-26T05:37:11;93146.00;;;10.45;100.00
9277;BME280;4676;42.678;23.244;2023-04-26T05:39:38;93150.47;;;10.56;100.00
9277;BME280;4676;42.678;23.244;2023-04-26T05:42:07;93161.22;;;10.75;100.00
9277;BME280;4676;42.678;23.244;2023-04-26T05:47:14;93161.94;;;10.92;100.00
9277;BME280;4676;42.678;23.244;2023-04-26T05:49:40;93161.56;;;10.98;100.00
9277;BME280;4676;42.678;23.244;2023-04-26T05:52:07;93165.75;;;10.99;100.00
9277;BME280;4676;42.678;23.244;2023-04-26T05:54:34;93169.94;;;11.00;100.00
9277;BME280;4676;42.678;23.244;2023-04-26T05:57:01;93165.34;;;11.21;100.00
9277;BME280;4676;42.678;23.244;2023-04-26T05:59:29;93167.44;;;11.29;100.00
9277;BME280;4676;42.678;23.244;2023-04-26T06:01:57;93170.31;;;11.23;100.00
9277;BME280;4676;42.678;23.244;2023-04-26T06:04:23;93169.66;;;11.05;100.00
9277;BME280;4676;42.678;23.244;2023-04-26T06:06:50;93173.75;;;11.08;100.00
9277;BME280;4676;42.678;23.244;2023-04-26T06:09:17;93175.66;;;10.88;100.00
9277;BME280;4676;42.678;23.244;2023-04-26T06:11:44;93178.38;;;10.85;100.00
9277;BME280;4676;42.678;23.244;2023-04-26T06:14:10;93179.59;;;10.94;100.00
9277;BME280;4676;42.678;23.244;2023-04-26T06:16:39;93180.38;;;10.94;100.00
9277;BME280;4676;42.678;23.244;2023-04-26T06:19:05;93178.84;;;10.92;100.00
9277;BME280;4676;42.678;23.244;2023-04-26T06:21:32;93175.13;;;10.83;100.00
9277;BME280;4676;42.678;23.244;2023-04-26T06:23:59;93185.50;;;11.09;100.00
9277;BME280;4676;42.678;23.244;2023-04-26T06:26:26;93197.00;;;11.00;100.00
9277;BME280;4676;42.678;23.244;2023-04-26T06:28:53;93192.16;;;10.95;100.00
9277;BME280;4676;42.678;23.244;2023-04-26T06:31:19;93186.44;;;10.92;100.00
9277;BME280;4676;42.678;23.244;2023-04-26T06:33:48;93186.41;;;10.78;100.00
9277;BME280;4676;42.678;23.244;2023-04-26T06:36:15;93188.88;;;10.64;100.00
9277;BME280;4676;42.678;23.244;2023-04-26T06:38:41;93190.22;;;10.55;100.00
9277;BME280;4676;42.678;23.244;2023-04-26T06:41:08;93186.50;;;10.76;100.00
9277;BME280;4676;42.678;23.244;2023-04-26T06:43:35;93178.69;;;10.95;100.00
9277;BME280;4676;42.678;23.244;2023-04-26T06:46:01;93192.00;;;10.98;100.00
9277;BME280;4676;42.678;23.244;2023-04-26T06:48:28;93197.00;;;10.84;100.00
9277;BME280;4676;42.678;23.244;2023-04-26T06:50:56;93193.28;;;10.76;100.00
9277;BME280;4676;42.678;23.244;2023-04-26T06:53:23;93193.94;;;10.79;100.00
9277;BME280;4676;42.678;23.244;2023-04-26T06:55:50;93199.88;;;10.94;100.00
9277;BME280;4676;42.678;23.244;2023-04-26T06:58:17;93201.13;;;10.87;100.00
9277;BME280;4676;42.678;23.244;2023-04-26T07:00:44;93189.03;;;10.76;100.00
9277;BME280;4676;42.678;23.244;2023-04-26T07:03:11;93203.66;;;10.56;100.00
9277;BME280;4676;42.678;23.244;2023-04-26T07:05:38;93202.53;;;10.61;100.00
9277;BME280;4676;42.678;23.244;2023-04-26T07:08:06;93198.84;;;10.67;100.00
9277;BME280;4676;42.678;23.244;2023-04-26T07:10:33;93206.53;;;10.65;100.00
9277;BME280;4676;42.678;23.244;2023-04-26T07:13:00;93202.78;;;10.72;100.00
9277;BME280;4676;42.678;23.244;2023-04-26T07:15:27;93206.84;;;10.90;100.00
9277;BME280;4676;42.678;23.244;2023-04-26T07:17:53;93177.53;;;11.00;100.00
9277;BME280;4676;42.678;23.244;2023-04-26T07:20:20;93203.44;;;11.35;100.00
9277;BME280;4676;42.678;23.244;2023-04-26T07:22:48;93203.56;;;11.18;100.00
9277;BME280;4676;42.678;23.244;2023-04-26T07:25:16;93200.34;;;11.00;100.00
9277;BME280;4676;42.678;23.244;2023-04-26T07:27:43;93205.97;;;11.06;100.00
9277;BME280;4676;42.678;23.244;2023-04-26T07:30:10;93202.06;;;11.00;100.00
9277;BME280;4676;42.678;23.244;2023-04-26T07:32:37;93212.38;;;10.97;98.27
9277;BME280;4676;42.678;23.244;2023-04-26T07:35:05;93221.53;;;10.99;99.36
9277;BME280;4676;42.678;23.244;2023-04-26T07:37:32;93216.47;;;10.84;100.00
9277;BME280;4676;42.678;23.244;2023-04-26T07:39:59;93222.28;;;10.86;100.00
9277;BME280;4676;42.678;23.244;2023-04-26T07:42:27;93222.53;;;10.81;98.92
9277;BME280;4676;42.678;23.244;2023-04-26T07:44:54;93226.34;;;11.04;100.00
9277;BME280;4676;42.678;23.244;2023-04-26T07:47:20;93234.78;;;11.05;98.34
9277;BME280;4676;42.678;23.244;2023-04-26T07:49:51;93226.72;;;11.12;100.00
9277;BME280;4676;42.678;23.244;2023-04-26T07:52:18;93234.28;;;10.98;100.00
9277;BME280;4676;42.678;23.244;2023-04-26T07:54:45;93236.50;;;10.88;98.93
9277;BME280;4676;42.678;23.244;2023-04-26T07:57:12;93227.66;;;10.95;98.77
9277;BME280;4676;42.678;23.244;2023-04-26T07:59:40;93231.59;;;11.01;97.71
9277;BME280;4676;42.678;23.244;2023-04-26T08:02:06;93230.84;;;10.99;98.78
9277;BME280;4676;42.678;23.244;2023-04-26T08:04:33;93230.78;;;11.00;98.63
9277;BME280;4676;42.678;23.244;2023-04-26T08:07:00;93227.25;;;11.03;97.17
9277;BME280;4676;42.678;23.244;2023-04-26T08:09:28;93227.47;;;11.14;98.94
9277;BME280;4676;42.678;23.244;2023-04-26T08:11:55;93241.00;;;11.29;98.97
9277;BME280;4676;42.678;23.244;2023-04-26T08:14:21;93223.22;;;11.15;96.56
9277;BME280;4676;42.678;23.244;2023-04-26T08:16:50;93230.19;;;11.11;91.33
9277;BME280;4676;42.678;23.244;2023-04-26T08:19:16;93235.97;;;11.13;93.55
9277;BME280;4676;42.678;23.244;2023-04-26T08:21:43;93228.19;;;11.16;93.97
9277;BME280;4676;42.678;23.244;2023-04-26T08:24:10;93231.47;;;11.18;93.31
9277;BME280;4676;42.678;23.244;2023-04-26T08:26:37;93234.25;;;11.14;97.82
9277;BME280;4676;42.678;23.244;2023-04-26T08:29:03;93232.44;;;11.16;91.29
9277;BME280;4676;42.678;23.244;2023-04-26T08:31:30;93230.84;;;11.29;91.34
9277;BME280;4676;42.678;23.244;2023-04-26T08:33:58;93232.03;;;11.37;91.90
9277;BME280;4676;42.678;23.244;2023-04-26T08:36:25;93229.78;;;11.33;88.36
9277;BME280;4676;42.678;23.244;2023-04-26T08:38:52;93235.16;;;11.42;85.71
9277;BME280;4676;42.678;23.244;2023-04-26T08:41:21;93222.81;;;11.36;87.59
9277;BME280;4676;42.678;23.244;2023-04-26T08:43:49;93226.19;;;11.65;87.92
9277;BME280;4676;42.678;23.244;2023-04-26T08:46:18;93208.13;;;11.85;88.45
9277;BME280;4676;42.678;23.244;2023-04-26T08:48:48;93224.63;;;12.21;86.92
9277;BME280;4676;42.678;23.244;2023-04-26T08:51:19;93223.91;;;12.19;85.62
9277;BME280;4676;42.678;23.244;2023-04-26T08:53:48;93227.63;;;11.99;85.35
9277;BME280;4676;42.678;23.244;2023-04-26T08:56:17;93227.72;;;11.97;82.77
9277;BME280;4676;42.678;23.244;2023-04-26T08:58:44;93224.34;;;12.11;83.90
9277;BME280;4676;42.678;23.244;2023-04-26T09:01:13;93221.47;;;12.03;79.33
9277;BME280;4676;42.678;23.244;2023-04-26T09:03:40;93228.06;;;12.34;80.13
9277;BME280;4676;42.678;23.244;2023-04-26T09:06:07;93229.69;;;12.35;80.88
9277;BME280;4676;42.678;23.244;2023-04-26T09:08:38;93231.56;;;12.45;83.14
9277;BME280;4676;42.678;23.244;2023-04-26T09:11:05;93235.94;;;12.43;81.60
9277;BME280;4676;42.678;23.244;2023-04-26T09:13:32;93233.34;;;12.17;73.83
9277;BME280;4676;42.678;23.244;2023-04-26T09:15:59;93230.69;;;12.18;73.27
9277;BME280;4676;42.678;23.244;2023-04-26T09:18:26;93238.03;;;12.23;76.95
9277;BME280;4676;42.678;23.244;2023-04-26T09:21:05;93234.69;;;12.08;75.69
9277;BME280;4676;42.678;23.244;2023-04-26T09:23:33;93239.69;;;12.38;79.67
9277;BME280;4676;42.678;23.244;2023-04-26T09:26:20;93236.84;;;12.28;76.40
9277;BME280;4676;42.678;23.244;2023-04-26T09:28:47;93240.66;;;12.35;76.83
9277;BME280;4676;42.678;23.244;2023-04-26T09:31:35;93233.16;;;12.20;74.13
9277;BME280;4676;42.678;23.244;2023-04-26T09:34:02;93236.78;;;12.30;72.67
9277;BME280;4676;42.678;23.244;2023-04-26T09:36:29;93243.94;;;12.23;72.17
9277;BME280;4676;42.678;23.244;2023-04-26T09:38:56;93247.47;;;12.35;71.41
9277;BME280;4676;42.678;23.244;2023-04-26T09:41:40;93239.66;;;12.52;74.56
9277;BME280;4676;42.678;23.244;2023-04-26T09:44:19;93227.59;;;12.82;72.79
9277;BME280;4676;42.678;23.244;2023-04-26T09:49:43;93238.03;;;13.31;69.23
9277;BME280;4676;42.678;23.244;2023-04-26T09:52:11;93236.69;;;12.99;67.32
9277;BME280;4676;42.678;23.244;2023-04-26T09:54:43;93236.19;;;12.94;68.94
9277;BME280;4676;42.678;23.244;2023-04-26T09:57:12;93226.47;;;12.86;69.37
9277;BME280;4676;42.678;23.244;2023-04-26T09:59:46;93223.03;;;12.87;68.19
9277;BME280;4676;42.678;23.244;2023-04-26T10:02:15;93229.16;;;13.12;67.66
9277;BME280;4676;42.678;23.244;2023-04-26T10:04:44;93228.78;;;13.30;63.71
9277;BME280;4676;42.678;23.244;2023-04-26T10:07:12;93231.56;;;13.52;61.36
9277;BME280;4676;42.678;23.244;2023-04-26T10:09:40;93227.50;;;13.50;59.68
9277;BME280;4676;42.678;23.244;2023-04-26T10:12:08;93211.16;;;13.27;62.52
9277;BME280;4676;42.678;23.244;2023-04-26T10:14:37;93218.34;;;13.60;61.74
9277;BME280;4676;42.678;23.244;2023-04-26T10:17:04;93224.22;;;13.48;60.22
9277;BME280;4676;42.678;23.244;2023-04-26T10:19:33;93223.09;;;13.39;59.92
9277;BME280;4676;42.678;23.244;2023-04-26T10:22:04;93227.16;;;13.42;60.74
9277;BME280;4676;42.678;23.244;2023-04-26T10:24:33;93220.38;;;13.55;62.80
9277;BME280;4676;42.678;23.244;2023-04-26T10:27:00;93223.41;;;13.35;59.59
9277;BME280;4676;42.678;23.244;2023-04-26T10:32:30;93226.06;;;13.46;59.44
9277;BME280;4676;42.678;23.244;2023-04-26T10:35:09;93221.78;;;13.46;58.32
9277;BME280;4676;42.678;23.244;2023-04-26T10:37:36;93225.09;;;13.22;57.96
9277;BME280;4676;42.678;23.244;2023-04-26T10:40:25;93230.19;;;13.22;58.94
9277;BME280;4676;42.678;23.244;2023-04-26T10:43:27;93209.13;;;13.06;60.72
9277;BME280;4676;42.678;23.244;2023-04-26T10:45:54;93220.00;;;13.22;58.95
9277;BME280;4676;42.678;23.244;2023-04-26T10:48:28;93210.06;;;13.31;59.24
9277;BME280;4676;42.678;23.244;2023-04-26T10:51:08;93220.16;;;13.45;60.58
9277;BME280;4676;42.678;23.244;2023-04-26T10:53:57;93221.59;;;13.62;57.99
9277;BME280;4676;42.678;23.244;2023-04-26T10:56:49;93214.66;;;13.51;57.36
9277;BME280;4676;42.678;23.244;2023-04-26T10:59:19;93220.28;;;13.17;57.36
9277;BME280;4676;42.678;23.244;2023-04-26T11:01:46;93208.00;;;13.24;56.87
9277;BME280;4676;42.678;23.244;2023-04-26T11:04:14;93216.97;;;13.29;56.17
9277;BME280;4676;42.678;23.244;2023-04-26T11:06:48;93213.63;;;13.41;56.66
9277;BME280;4676;42.678;23.244;2023-04-26T11:09:35;93209.56;;;13.39;56.64
9277;BME280;4676;42.678;23.244;2023-04-26T11:12:09;93209.44;;;13.28;56.55
9277;BME280;4676;42.678;23.244;2023-04-26T11:14:36;93214.84;;;13.36;55.68
9277;BME280;4676;42.678;23.244;2023-04-26T11:17:03;93212.03;;;13.53;57.38
9277;BME280;4676;42.678;23.244;2023-04-26T11:19:32;93215.31;;;13.68;54.79
9277;BME280;4676;42.678;23.244;2023-04-26T11:21:58;93211.63;;;13.72;53.43
9277;BME280;4676;42.678;23.244;2023-04-26T11:24:26;93201.84;;;13.78;55.05
9277;BME280;4676;42.678;23.244;2023-04-26T11:26:53;93215.19;;;13.69;54.86
9277;BME280;4676;42.678;23.244;2023-04-26T11:29:21;93227.28;;;13.40;55.88
9277;BME280;4676;42.678;23.244;2023-04-26T11:31:51;93206.53;;;13.46;55.26
9277;BME280;4676;42.678;23.244;2023-04-26T11:34:22;93224.34;;;13.59;56.30
9277;BME280;4676;42.678;23.244;2023-04-26T11:36:51;93227.28;;;13.53;57.10
9277;BME280;4676;42.678;23.244;2023-04-26T11:39:19;93219.22;;;13.34;56.66
9277;BME280;4676;42.678;23.244;2023-04-26T11:41:47;93221.19;;;13.43;56.55
9277;BME280;4676;42.678;23.244;2023-04-26T11:44:17;93213.13;;;13.62;56.80
9277;BME280;4676;42.678;23.244;2023-04-26T11:46:45;93215.09;;;13.83;56.34
9277;BME280;4676;42.678;23.244;2023-04-26T11:49:13;93226.50;;;14.03;55.11
9277;BME280;4676;42.678;23.244;2023-04-26T11:51:40;93213.78;;;14.03;53.54
9277;BME280;4676;42.678;23.244;2023-04-26T11:54:09;93214.13;;;14.22;54.32
9277;BME280;4676;42.678;23.244;2023-04-26T11:56:35;93210.72;;;14.11;53.81
9277;BME280;4676;42.678;23.244;2023-04-26T11:59:04;93205.13;;;13.93;55.52
9277;BME280;4676;42.678;23.244;2023-04-26T12:01:30;93205.31;;;13.90;55.13
9277;BME280;4676;42.678;23.244;2023-04-26T12:03:58;93207.66;;;13.93;56.72
9277;BME280;4676;42.678;23.244;2023-04-26T12:06:28;93209.09;;;13.84;54.65
9277;BME280;4676;42.678;23.244;2023-04-26T12:08:57;93216.13;;;13.68;54.25
9277;BME280;4676;42.678;23.244;2023-04-26T12:11:25;93222.81;;;13.44;55.24
9277;BME280;4676;42.678;23.244;2023-04-26T12:13:52;93216.88;;;13.31;54.18
9277;BME280;4676;42.678;23.244;2023-04-26T12:16:21;93216.72;;;13.20;53.95
9277;BME280;4676;42.678;23.244;2023-04-26T12:18:49;93210.25;;;13.41;53.54
9277;BME280;4676;42.678;23.244;2023-04-26T12:21:16;93197.59;;;13.79;54.03
9277;BME280;4676;42.678;23.244;2023-04-26T12:23:43;93199.72;;;13.85;53.38
9277;BME280;4676;42.678;23.244;2023-04-26T12:26:12;93206.75;;;14.07;53.28
9277;BME280;4676;42.678;23.244;2023-04-26T12:28:41;93203.97;;;13.97;52.17
9277;BME280;4676;42.678;23.244;2023-04-26T12:31:07;93210.22;;;13.93;54.50
9277;BME280;4676;42.678;23.244;2023-04-26T12:33:34;93194.00;;;13.81;52.74
9277;BME280;4676;42.678;23.244;2023-04-26T12:36:08;93195.53;;;13.84;53.65
9277;BME280;4676;42.678;23.244;2023-04-26T12:38:36;93209.50;;;13.78;54.42
9277;BME280;4676;42.678;23.244;2023-04-26T12:41:03;93200.94;;;13.67;54.30
9277;BME280;4676;42.678;23.244;2023-04-26T12:43:30;93198.47;;;13.65;54.51
9277;BME280;4676;42.678;23.244;2023-04-26T12:45:58;93199.00;;;13.58;53.69
9277;BME280;4676;42.678;23.244;2023-04-26T12:48:25;93198.69;;;13.62;54.21
9277;BME280;4676;42.678;23.244;2023-04-26T12:50:52;93200.91;;;13.41;55.15
9277;BME280;4676;42.678;23.244;2023-04-26T12:53:19;93206.41;;;13.35;54.33
9277;BME280;4676;42.678;23.244;2023-04-26T12:55:46;93192.44;;;13.41;54.98
9277;BME280;4676;42.678;23.244;2023-04-26T12:58:13;93198.28;;;13.43;55.60
9277;BME280;4676;42.678;23.244;2023-04-26T13:00:39;93201.09;;;13.26;56.41
9277;BME280;4676;42.678;23.244;2023-04-26T13:03:07;93207.88;;;13.13;56.31
9277;BME280;4676;42.678;23.244;2023-04-26T13:05:35;93210.13;;;13.17;56.80
9277;BME280;4676;42.678;23.244;2023-04-26T13:08:02;93208.34;;;13.05;57.33
9277;BME280;4676;42.678;23.244;2023-04-26T13:10:29;93216.50;;;13.10;58.17
9277;BME280;4676;42.678;23.244;2023-04-26T13:12:57;93210.25;;;13.16;57.65
9277;BME280;4676;42.678;23.244;2023-04-26T13:15:24;93209.72;;;13.23;56.20
9277;BME280;4676;42.678;23.244;2023-04-26T13:17:51;93236.66;;;13.13;54.48
9277;BME280;4676;42.678;23.244;2023-04-26T13:20:19;93225.59;;;13.14;54.05
9277;BME280;4676;42.678;23.244;2023-04-26T13:22:46;93226.53;;;13.26;54.63
9277;BME280;4676;42.678;23.244;2023-04-26T13:25:13;93226.00;;;13.21;55.74
9277;BME280;4676;42.678;23.244;2023-04-26T13:27:42;93237.63;;;12.98;56.70
9277;BME280;4676;42.678;23.244;2023-04-26T13:30:09;93235.56;;;12.90;57.62
9277;BME280;4676;42.678;23.244;2023-04-26T13:32:36;93251.47;;;12.80;57.35
9277;BME280;4676;42.678;23.244;2023-04-26T13:35:04;93246.44;;;12.66;56.64
9277;BME280;4676;42.678;23.244;2023-04-26T13:37:33;93242.19;;;12.52;56.11
9277;BME280;4676;42.678;23.244;2023-04-26T13:39:59;93244.66;;;12.39;54.78